sensor_id;sensor_type;location;lat;lon;timestamp;P1;durP1;ratioP1;P2;durP2;ratioP2
9643;SDS011;4860;50.900;4.720;2023-05-16T00:01:30;0.20;;;0.20;;
9643;SDS011;4860;50.900;4.720;2023-05-16T00:03:57;0.30;;;0.30;;
9643;SDS011;4860;50.900;4.720;2023-05-16T00:06:23;0.20;;;0.20;;
9643;SDS011;4860;50.900;4.720;2023-05-16T00:08:49;0.30;;;0.30;;
9643;SDS011;4860;50.900;4.720;2023-05-16T00:11:16;0.25;;;0.25;;
9643;SDS011;4860;50.900;4.720;2023-05-16T00:13:42;0.30;;;0.30;;
9643;SDS011;4860;50.900;4.720;2023-05-16T00:16:10;0.28;;;0.28;;
9643;SDS011;4860;50.900;4.720;2023-05-16T00:18:38;0.28;;;0.28;;
9643;SDS011;4860;50.900;4.720;2023-05-16T00:21:05;0.30;;;0.30;;
9643;SDS011;4860;50.900;4.720;2023-05-16T00:23:31;0.30;;;0.30;;
9643;SDS011;4860;50.900;4.720;2023-05-16T00:25:57;0.30;;;0.30;;
9643;SDS011;4860;50.900;4.720;2023-05-16T00:28:23;0.30;;;0.30;;
9643;SDS011;4860;50.900;4.720;2023-05-16T00:30:50;0.30;;;0.30;;
9643;SDS011;4860;50.900;4.720;2023-05-16T00:33:16;0.30;;;0.30;;
9643;SDS011;4860;50.900;4.720;2023-05-16T00:35:42;0.20;;;0.20;;
9643;SDS011;4860;50.900;4.720;2023-05-16T00:38:08;0.30;;;0.30;;
9643;SDS011;4860;50.900;4.720;2023-05-16T00:40:34;0.30;;;0.30;;
9643;SDS011;4860;50.900;4.720;2023-05-16T00:43:01;0.30;;;0.30;;
9643;SDS011;4860;50.900;4.720;2023-05-16T00:45:27;0.30;;;0.30;;
9643;SDS011;4860;50.900;4.720;2023-05-16T00:47:53;0.30;;;0.30;;
9643;SDS011;4860;50.900;4.720;2023-05-16T00:50:19;0.30;;;0.30;;
9643;SDS011;4860;50.900;4.720;2023-05-16T00:52:45;0.28;;;0.28;;
9643;SDS011;4860;50.900;4.720;2023-05-16T00:55:12;0.30;;;0.30;;
9643;SDS011;4860;50.900;4.720;2023-05-16T00:57:38;0.40;;;0.40;;
9643;SDS011;4860;50.900;4.720;2023-05-16T01:00:05;0.30;;;0.30;;
9643;SDS011;4860;50.900;4.720;2023-05-16T01:02:33;0.30;;;0.30;;
9643;SDS011;4860;50.900;4.720;2023-05-16T01:05:00;0.30;;;0.30;;
9643;SDS011;4860;50.900;4.720;2023-05-16T01:07:26;0.30;;;0.30;;
9643;SDS011;4860;50.900;4.720;2023-05-16T01:09:52;0.30;;;0.30;;
9643;SDS011;4860;50.900;4.720;2023-05-16T01:12:29;0.30;;;0.30;;
9643;SDS011;4860;50.900;4.720;2023-05-16T01:20:08;0.30;;;0.30;;
9643;SDS011;4860;50.900;4.720;2023-05-16T01:28:00;0.30;;;0.30;;
9643;SDS011;4860;50.900;4.720;2023-05-16T01:30:30;0.30;;;0.30;;
9643;SDS011;4860;50.900;4.720;2023-05-16T01:32:57;0.20;;;0.20;;
9643;SDS011;4860;50.900;4.720;2023-05-16T01:35:23;0.30;;;0.30;;
9643;SDS011;4860;50.900;4.720;2023-05-16T01:38:51;0.30;;;0.30;;
9643;SDS011;4860;50.900;4.720;2023-05-16T01:40:48;0.30;;;0.30;;
9643;SDS011;4860;50.900;4.720;2023-05-16T01:43:16;0.38;;;0.38;;
9643;SDS011;4860;50.900;4.720;2023-05-16T01:46:02;0.30;;;0.30;;
9643;SDS011;4860;50.900;4.720;2023-05-16T01:48:34;0.40;;;0.40;;
9643;SDS011;4860;50.900;4.720;2023-05-16T01:51:02;0.30;;;0.30;;
9643;SDS011;4860;50.900;4.720;2023-05-16T01:53:32;0.30;;;0.30;;
9643;SDS011;4860;50.900;4.720;2023-05-16T01:55:59;0.30;;;0.30;;
9643;SDS011;4860;50.900;4.720;2023-05-16T01:58:27;0.30;;;0.30;;
9643;SDS011;4860;50.900;4.720;2023-05-16T02:00:53;0.30;;;0.30;;
9643;SDS011;4860;50.900;4.720;2023-05-16T02:03:20;0.30;;;0.30;;
9643;SDS011;4860;50.900;4.720;2023-05-16T02:05:46;0.30;;;0.30;;
9643;SDS011;4860;50.900;4.720;2023-05-16T02:08:12;0.30;;;0.30;;
9643;SDS011;4860;50.900;4.720;2023-05-16T02:10:38;0.30;;;0.30;;
9643;SDS011;4860;50.900;4.720;2023-05-16T02:13:05;0.30;;;0.30;;
9643;SDS011;4860;50.900;4.720;2023-05-16T02:15:31;0.30;;;0.30;;
9643;SDS011;4860;50.900;4.720;2023-05-16T02:17:57;0.30;;;0.30;;
9643;SDS011;4860;50.900;4.720;2023-05-16T02:20:24;0.20;;;0.20;;
9643;SDS011;4860;50.900;4.720;2023-05-16T02:22:50;0.30;;;0.30;;
9643;SDS011;4860;50.900;4.720;2023-05-16T02:25:16;0.30;;;0.30;;
9643;SDS011;4860;50.900;4.720;2023-05-16T02:27:42;0.37;;;0.37;;
9643;SDS011;4860;50.900;4.720;2023-05-16T02:30:09;0.30;;;0.30;;
9643;SDS011;4860;50.900;4.720;2023-05-16T02:32:37;0.30;;;0.30;;
9643;SDS011;4860;50.900;4.720;2023-05-16T02:35:03;0.30;;;0.30;;
9643;SDS011;4860;50.900;4.720;2023-05-16T02:37:29;0.40;;;0.40;;
9643;SDS011;4860;50.900;4.720;2023-05-16T02:39:55;0.30;;;0.30;;
9643;SDS011;4860;50.900;4.720;2023-05-16T02:42:21;0.30;;;0.30;;
9643;SDS011;4860;50.900;4.720;2023-05-16T02:44:48;0.30;;;0.30;;
9643;SDS011;4860;50.900;4.720;2023-05-16T02:47:14;0.30;;;0.30;;
9643;SDS011;4860;50.900;4.720;2023-05-16T02:49:40;0.30;;;0.30;;
9643;SDS011;4860;50.900;4.720;2023-05-16T02:52:06;0.30;;;0.30;;
9643;SDS011;4860;50.900;4.720;2023-05-16T02:54:32;0.30;;;0.30;;
9643;SDS011;4860;50.900;4.720;2023-05-16T02:56:58;0.30;;;0.30;;
9643;SDS011;4860;50.900;4.720;2023-05-16T02:59:24;0.33;;;0.33;;
9643;SDS011;4860;50.900;4.720;2023-05-16T03:01:51;0.30;;;0.30;;
9643;SDS011;4860;50.900;4.720;2023-05-16T03:04:17;0.37;;;0.37;;
9643;SDS011;4860;50.900;4.720;2023-05-16T03:06:43;0.40;;;0.40;;
9643;SDS011;4860;50.900;4.720;2023-05-16T03:09:09;0.30;;;0.30;;
9643;SDS011;4860;50.900;4.720;2023-05-16T03:11:35;0.30;;;0.30;;
9643;SDS011;4860;50.900;4.720;2023-05-16T03:14:01;0.40;;;0.40;;
9643;SDS011;4860;50.900;4.720;2023-05-16T03:16:28;0.30;;;0.30;;
9643;SDS011;4860;50.900;4.720;2023-05-16T03:18:54;0.30;;;0.30;;
9643;SDS011;4860;50.900;4.720;2023-05-16T03:21:21;0.30;;;0.30;;
9643;SDS011;4860;50.900;4.720;2023-05-16T03:23:47;0.30;;;0.30;;
9643;SDS011;4860;50.900;4.720;2023-05-16T03:26:13;0.30;;;0.30;;
9643;SDS011;4860;50.900;4.720;2023-05-16T03:28:39;0.30;;;0.30;;
9643;SDS011;4860;50.900;4.720;2023-05-16T03:31:05;0.30;;;0.30;;
9643;SDS011;4860;50.900;4.720;2023-05-16T03:33:32;0.40;;;0.40;;
9643;SDS011;4860;50.900;4.720;2023-05-16T03:35:58;0.30;;;0.30;;
9643;SDS011;4860;50.900;4.720;2023-05-16T03:38:24;0.40;;;0.40;;
9643;SDS011;4860;50.900;4.720;2023-05-16T03:40:50;0.40;;;0.40;;
9643;SDS011;4860;50.900;4.720;2023-05-16T03:43:16;0.30;;;0.30;;
9643;SDS011;4860;50.900;4.720;2023-05-16T03:45:43;0.30;;;0.30;;
9643;SDS011;4860;50.900;4.720;2023-05-16T03:48:09;0.30;;;0.30;;
9643;SDS011;4860;50.900;4.720;2023-05-16T03:50:35;0.30;;;0.30;;
9643;SDS011;4860;50.900;4.720;2023-05-16T03:53:01;0.30;;;0.30;;
9643;SDS011;4860;50.900;4.720;2023-05-16T03:55:28;0.37;;;0.37;;
9643;SDS011;4860;50.900;4.720;2023-05-16T03:57:55;0.30;;;0.30;;
9643;SDS011;4860;50.900;4.720;2023-05-16T04:00:21;0.30;;;0.30;;
9643;SDS011;4860;50.900;4.720;2023-05-16T04:02:47;0.30;;;0.30;;
9643;SDS011;4860;50.900;4.720;2023-05-16T04:05:14;0.30;;;0.30;;
9643;SDS011;4860;50.900;4.720;2023-05-16T04:07:40;0.30;;;0.30;;
9643;SDS011;4860;50.900;4.720;2023-05-16T04:10:07;0.40;;;0.40;;
9643;SDS011;4860;50.900;4.720;2023-05-16T04:12:33;0.40;;;0.40;;
9643;SDS011;4860;50.900;4.720;2023-05-16T04:15:00;0.33;;;0.33;;
9643;SDS011;4860;50.900;4.720;2023-05-16T04:17:27;0.40;;;0.40;;
9643;SDS011;4860;50.900;4.720;2023-05-16T04:19:53;0.30;;;0.30;;
9643;SDS011;4860;50.900;4.720;2023-05-16T04:22:20;0.30;;;0.30;;
9643;SDS011;4860;50.900;4.720;2023-05-16T04:24:47;0.40;;;0.40;;
9643;SDS011;4860;50.900;4.720;2023-05-16T04:27:13;0.30;;;0.30;;
9643;SDS011;4860;50.900;4.720;2023-05-16T04:29:39;0.30;;;0.30;;
9643;SDS011;4860;50.900;4.720;2023-05-16T04:32:06;0.30;;;0.30;;
9643;SDS011;4860;50.900;4.720;2023-05-16T04:34:33;0.30;;;0.30;;
9643;SDS011;4860;50.900;4.720;2023-05-16T04:37:02;0.30;;;0.30;;
9643;SDS011;4860;50.900;4.720;2023-05-16T04:39:29;0.30;;;0.30;;
9643;SDS011;4860;50.900;4.720;2023-05-16T04:41:56;0.30;;;0.30;;
9643;SDS011;4860;50.900;4.720;2023-05-16T04:44:23;0.40;;;0.40;;
9643;SDS011;4860;50.900;4.720;2023-05-16T04:46:50;0.30;;;0.30;;
9643;SDS011;4860;50.900;4.720;2023-05-16T04:49:17;0.30;;;0.30;;
9643;SDS011;4860;50.900;4.720;2023-05-16T04:51:43;0.30;;;0.30;;
9643;SDS011;4860;50.900;4.720;2023-05-16T04:54:10;0.30;;;0.30;;
9643;SDS011;4860;50.900;4.720;2023-05-16T04:56:37;0.30;;;0.30;;
9643;SDS011;4860;50.900;4.720;2023-05-16T04:59:03;0.30;;;0.30;;
9643;SDS011;4860;50.900;4.720;2023-05-16T05:01:29;0.30;;;0.30;;
9643;SDS011;4860;50.900;4.720;2023-05-16T05:03:55;0.30;;;0.30;;
9643;SDS011;4860;50.900;4.720;2023-05-16T05:06:21;0.30;;;0.30;;
9643;SDS011;4860;50.900;4.720;2023-05-16T05:08:47;0.30;;;0.30;;
9643;SDS011;4860;50.900;4.720;2023-05-16T05:11:14;0.30;;;0.30;;
9643;SDS011;4860;50.900;4.720;2023-05-16T05:13:40;0.30;;;0.30;;
9643;SDS011;4860;50.900;4.720;2023-05-16T05:16:06;0.30;;;0.30;;
9643;SDS011;4860;50.900;4.720;2023-05-16T05:18:32;0.30;;;0.30;;
9643;SDS011;4860;50.900;4.720;2023-05-16T05:20:59;0.30;;;0.30;;
9643;SDS011;4860;50.900;4.720;2023-05-16T05:23:25;0.30;;;0.30;;
9643;SDS011;4860;50.900;4.720;2023-05-16T05:25:51;0.30;;;0.30;;
9643;SDS011;4860;50.900;4.720;2023-05-16T05:28:17;0.32;;;0.32;;
9643;SDS011;4860;50.900;4.720;2023-05-16T05:30:43;0.30;;;0.30;;
9643;SDS011;4860;50.900;4.720;2023-05-16T05:33:15;0.30;;;0.30;;
9643;SDS011;4860;50.900;4.720;2023-05-16T05:35:42;0.30;;;0.30;;
9643;SDS011;4860;50.900;4.720;2023-05-16T05:38:09;0.30;;;0.30;;
9643;SDS011;4860;50.900;4.720;2023-05-16T05:40:35;0.22;;;0.22;;
9643;SDS011;4860;50.900;4.720;2023-05-16T05:43:01;0.30;;;0.30;;
9643;SDS011;4860;50.900;4.720;2023-05-16T05:45:27;0.30;;;0.30;;
9643;SDS011;4860;50.900;4.720;2023-05-16T05:47:53;0.30;;;0.30;;
9643;SDS011;4860;50.900;4.720;2023-05-16T05:50:19;0.30;;;0.30;;
9643;SDS011;4860;50.900;4.720;2023-05-16T05:52:46;0.20;;;0.20;;
9643;SDS011;4860;50.900;4.720;2023-05-16T05:55:12;0.28;;;0.28;;
9643;SDS011;4860;50.900;4.720;2023-05-16T05:57:38;0.30;;;0.30;;
9643;SDS011;4860;50.900;4.720;2023-05-16T06:00:04;0.20;;;0.20;;
9643;SDS011;4860;50.900;4.720;2023-05-16T06:02:31;0.30;;;0.30;;
9643;SDS011;4860;50.900;4.720;2023-05-16T06:04:57;0.20;;;0.20;;
9643;SDS011;4860;50.900;4.720;2023-05-16T06:07:23;0.30;;;0.30;;
9643;SDS011;4860;50.900;4.720;2023-05-16T06:09:49;0.20;;;0.20;;
9643;SDS011;4860;50.900;4.720;2023-05-16T06:12:16;0.20;;;0.20;;
9643;SDS011;4860;50.900;4.720;2023-05-16T06:14:42;0.30;;;0.30;;
9643;SDS011;4860;50.900;4.720;2023-05-16T06:17:08;0.20;;;0.20;;
9643;SDS011;4860;50.900;4.720;2023-05-16T06:19:34;0.28;;;0.28;;
9643;SDS011;4860;50.900;4.720;2023-05-16T06:22:01;0.30;;;0.30;;
9643;SDS011;4860;50.900;4.720;2023-05-16T06:24:27;0.20;;;0.20;;
9643;SDS011;4860;50.900;4.720;2023-05-16T06:26:54;0.20;;;0.20;;
9643;SDS011;4860;50.900;4.720;2023-05-16T06:29:20;0.20;;;0.20;;
9643;SDS011;4860;50.900;4.720;2023-05-16T06:31:46;0.20;;;0.20;;
9643;SDS011;4860;50.900;4.720;2023-05-16T06:34:12;0.20;;;0.20;;
9643;SDS011;4860;50.900;4.720;2023-05-16T06:36:38;0.17;;;0.17;;
9643;SDS011;4860;50.900;4.720;2023-05-16T06:39:05;0.20;;;0.20;;
9643;SDS011;4860;50.900;4.720;2023-05-16T06:41:31;0.30;;;0.30;;
9643;SDS011;4860;50.900;4.720;2023-05-16T06:43:57;0.20;;;0.20;;
9643;SDS011;4860;50.900;4.720;2023-05-16T06:46:24;0.20;;;0.20;;
9643;SDS011;4860;50.900;4.720;2023-05-16T06:48:50;0.28;;;0.28;;
9643;SDS011;4860;50.900;4.720;2023-05-16T06:51:16;0.20;;;0.20;;
9643;SDS011;4860;50.900;4.720;2023-05-16T06:53:42;0.20;;;0.20;;
9643;SDS011;4860;50.900;4.720;2023-05-16T06:56:08;0.20;;;0.20;;
9643;SDS011;4860;50.900;4.720;2023-05-16T06:58:34;0.20;;;0.20;;
9643;SDS011;4860;50.900;4.720;2023-05-16T07:01:01;0.20;;;0.20;;
9643;SDS011;4860;50.900;4.720;2023-05-16T07:03:27;0.15;;;0.15;;
9643;SDS011;4860;50.900;4.720;2023-05-16T07:05:53;0.10;;;0.10;;
9643;SDS011;4860;50.900;4.720;2023-05-16T07:08:21;0.20;;;0.20;;
9643;SDS011;4860;50.900;4.720;2023-05-16T07:10:47;0.20;;;0.20;;
9643;SDS011;4860;50.900;4.720;2023-05-16T07:13:14;0.20;;;0.20;;
9643;SDS011;4860;50.900;4.720;2023-05-16T07:15:40;0.20;;;0.20;;
9643;SDS011;4860;50.900;4.720;2023-05-16T07:18:06;0.17;;;0.17;;
9643;SDS011;4860;50.900;4.720;2023-05-16T07:20:32;0.10;;;0.10;;
9643;SDS011;4860;50.900;4.720;2023-05-16T07:22:58;0.20;;;0.20;;
9643;SDS011;4860;50.900;4.720;2023-05-16T07:25:25;0.10;;;0.10;;
9643;SDS011;4860;50.900;4.720;2023-05-16T07:27:51;0.10;;;0.10;;
9643;SDS011;4860;50.900;4.720;2023-05-16T07:30:17;0.20;;;0.20;;
9643;SDS011;4860;50.900;4.720;2023-05-16T07:32:44;0.20;;;0.20;;
9643;SDS011;4860;50.900;4.720;2023-05-16T07:35:10;0.10;;;0.10;;
9643;SDS011;4860;50.900;4.720;2023-05-16T07:37:37;0.10;;;0.10;;
9643;SDS011;4860;50.900;4.720;2023-05-16T07:40:06;0.15;;;0.15;;
9643;SDS011;4860;50.900;4.720;2023-05-16T07:42:32;0.10;;;0.10;;
9643;SDS011;4860;50.900;4.720;2023-05-16T07:44:59;0.20;;;0.20;;
9643;SDS011;4860;50.900;4.720;2023-05-16T07:47:26;0.20;;;0.20;;
9643;SDS011;4860;50.900;4.720;2023-05-16T07:49:52;0.10;;;0.10;;
9643;SDS011;4860;50.900;4.720;2023-05-16T07:52:18;0.20;;;0.20;;
9643;SDS011;4860;50.900;4.720;2023-05-16T07:54:45;0.20;;;0.20;;
9643;SDS011;4860;50.900;4.720;2023-05-16T07:57:12;0.10;;;0.10;;
9643;SDS011;4860;50.900;4.720;2023-05-16T07:59:39;0.20;;;0.20;;
9643;SDS011;4860;50.900;4.720;2023-05-16T08:02:05;0.10;;;0.10;;
9643;SDS011;4860;50.900;4.720;2023-05-16T08:04:31;0.10;;;0.10;;
9643;SDS011;4860;50.900;4.720;2023-05-16T08:06:57;0.10;;;0.10;;
9643;SDS011;4860;50.900;4.720;2023-05-16T08:09:23;0.10;;;0.10;;
9643;SDS011;4860;50.900;4.720;2023-05-16T08:11:50;0.10;;;0.10;;
9643;SDS011;4860;50.900;4.720;2023-05-16T08:14:16;0.10;;;0.10;;
9643;SDS011;4860;50.900;4.720;2023-05-16T08:16:43;0.10;;;0.10;;
9643;SDS011;4860;50.900;4.720;2023-05-16T08:19:09;0.10;;;0.10;;
9643;SDS011;4860;50.900;4.720;2023-05-16T08:21:35;0.10;;;0.10;;
9643;SDS011;4860;50.900;4.720;2023-05-16T08:24:01;0.10;;;0.10;;
9643;SDS011;4860;50.900;4.720;2023-05-16T08:26:29;0.10;;;0.10;;
9643;SDS011;4860;50.900;4.720;2023-05-16T08:28:55;0.17;;;0.17;;
9643;SDS011;4860;50.900;4.720;2023-05-16T08:31:21;0.10;;;0.10;;
9643;SDS011;4860;50.900;4.720;2023-05-16T08:33:48;0.10;;;0.10;;
9643;SDS011;4860;50.900;4.720;2023-05-16T08:36:14;0.10;;;0.10;;
9643;SDS011;4860;50.900;4.720;2023-05-16T08:38:42;0.10;;;0.10;;
9643;SDS011;4860;50.900;4.720;2023-05-16T08:41:08;0.10;;;0.10;;
9643;SDS011;4860;50.900;4.720;2023-05-16T08:43:35;0.10;;;0.10;;
9643;SDS011;4860;50.900;4.720;2023-05-16T08:46:01;0.10;;;0.10;;
9643;SDS011;4860;50.900;4.720;2023-05-16T08:48:27;0.10;;;0.10;;
9643;SDS011;4860;50.900;4.720;2023-05-16T08:50:57;0.10;;;0.10;;
9643;SDS011;4860;50.900;4.720;2023-05-16T08:53:25;0.10;;;0.10;;
9643;SDS011;4860;50.900;4.720;2023-05-16T08:55:56;0.10;;;0.10;;
9643;SDS011;4860;50.900;4.720;2023-05-16T08:58:23;0.10;;;0.10;;
9643;SDS011;4860;50.900;4.720;2023-05-16T09:00:49;0.10;;;0.10;;
9643;SDS011;4860;50.900;4.720;2023-05-16T09:03:16;0.05;;;0.05;;
9643;SDS011;4860;50.900;4.720;2023-05-16T09:05:44;0.20;;;0.20;;
9643;SDS011;4860;50.900;4.720;2023-05-16T09:08:11;0.10;;;0.10;;
9643;SDS011;4860;50.900;4.720;2023-05-16T09:10:37;0.10;;;0.10;;
9643;SDS011;4860;50.900;4.720;2023-05-16T09:13:03;0.10;;;0.10;;
9643;SDS011;4860;50.900;4.720;2023-05-16T09:15:30;0.10;;;0.10;;
9643;SDS011;4860;50.900;4.720;2023-05-16T09:17:58;0.10;;;0.10;;
9643;SDS011;4860;50.900;4.720;2023-05-16T09:20:25;0.10;;;0.10;;
9643;SDS011;4860;50.900;4.720;2023-05-16T09:22:51;0.10;;;0.10;;
9643;SDS011;4860;50.900;4.720;2023-05-16T09:25:18;0.10;;;0.10;;
9643;SDS011;4860;50.900;4.720;2023-05-16T09:27:45;0.10;;;0.10;;
9643;SDS011;4860;50.900;4.720;2023-05-16T09:30:15;0.10;;;0.10;;
9643;SDS011;4860;50.900;4.720;2023-05-16T09:32:42;0.10;;;0.10;;
9643;SDS011;4860;50.900;4.720;2023-05-16T09:35:10;0.00;;;0.00;;
9643;SDS011;4860;50.900;4.720;2023-05-16T09:37:36;0.10;;;0.10;;
9643;SDS011;4860;50.900;4.720;2023-05-16T09:40:02;0.10;;;0.10;;
9643;SDS011;4860;50.900;4.720;2023-05-16T09:42:29;0.10;;;0.10;;
9643;SDS011;4860;50.900;4.720;2023-05-16T09:44:56;0.10;;;0.10;;
9643;SDS011;4860;50.900;4.720;2023-05-16T09:47:22;0.10;;;0.10;;
9643;SDS011;4860;50.900;4.720;2023-05-16T09:49:51;0.10;;;0.10;;
9643;SDS011;4860;50.900;4.720;2023-05-16T09:52:18;0.10;;;0.10;;
9643;SDS011;4860;50.900;4.720;2023-05-16T09:54:45;0.10;;;0.10;;
9643;SDS011;4860;50.900;4.720;2023-05-16T09:57:18;0.10;;;0.10;;
9643;SDS011;4860;50.900;4.720;2023-05-16T09:59:44;0.10;;;0.10;;
9643;SDS011;4860;50.900;4.720;2023-05-16T10:02:10;0.10;;;0.10;;
9643;SDS011;4860;50.900;4.720;2023-05-16T10:04:37;0.10;;;0.10;;
9643;SDS011;4860;50.900;4.720;2023-05-16T10:07:04;0.10;;;0.10;;
9643;SDS011;4860;50.900;4.720;2023-05-16T10:09:33;0.10;;;0.10;;
9643;SDS011;4860;50.900;4.720;2023-05-16T10:12:01;0.10;;;0.10;;
9643;SDS011;4860;50.900;4.720;2023-05-16T10:14:29;0.10;;;0.10;;
9643;SDS011;4860;50.900;4.720;2023-05-16T10:16:56;0.10;;;0.10;;
9643;SDS011;4860;50.900;4.720;2023-05-16T10:19:22;0.10;;;0.10;;
9643;SDS011;4860;50.900;4.720;2023-05-16T10:21:51;0.10;;;0.10;;
9643;SDS011;4860;50.900;4.720;2023-05-16T10:24:21;0.00;;;0.00;;
9643;SDS011;4860;50.900;4.720;2023-05-16T10:26:49;0.10;;;0.10;;
9643;SDS011;4860;50.900;4.720;2023-05-16T10:29:16;0.10;;;0.10;;
9643;SDS011;4860;50.900;4.720;2023-05-16T10:31:43;0.10;;;0.10;;
9643;SDS011;4860;50.900;4.720;2023-05-16T10:34:10;0.10;;;0.10;;
9643;SDS011;4860;50.900;4.720;2023-05-16T10:36:36;0.10;;;0.10;;
9643;SDS011;4860;50.900;4.720;2023-05-16T10:39:04;0.10;;;0.10;;
9643;SDS011;4860;50.900;4.720;2023-05-16T10:41:31;0.10;;;0.10;;
9643;SDS011;4860;50.900;4.720;2023-05-16T10:43:58;0.10;;;0.10;;
9643;SDS011;4860;50.900;4.720;2023-05-16T10:46:26;0.10;;;0.10;;
9643;SDS011;4860;50.900;4.720;2023-05-16T10:48:55;0.10;;;0.10;;
9643;SDS011;4860;50.900;4.720;2023-05-16T10:53:54;0.00;;;0.00;;
9643;SDS011;4860;50.900;4.720;2023-05-16T10:56:24;0.10;;;0.10;;
9643;SDS011;4860;50.900;4.720;2023-05-16T10:58:51;0.10;;;0.10;;
9643;SDS011;4860;50.900;4.720;2023-05-16T11:14:19;0.10;;;0.10;;
9643;SDS011;4860;50.900;4.720;2023-05-16T11:19:37;0.10;;;0.10;;
9643;SDS011;4860;50.900;4.720;2023-05-16T11:22:08;0.10;;;0.10;;
9643;SDS011;4860;50.900;4.720;2023-05-16T11:24:35;0.10;;;0.10;;
9643;SDS011;4860;50.900;4.720;2023-05-16T11:27:03;0.10;;;0.10;;
9643;SDS011;4860;50.900;4.720;2023-05-16T11:29:35;0.10;;;0.10;;
9643;SDS011;4860;50.900;4.720;2023-05-16T11:32:02;0.10;;;0.10;;
9643;SDS011;4860;50.900;4.720;2023-05-16T11:34:29;0.10;;;0.10;;
9643;SDS011;4860;50.900;4.720;2023-05-16T11:36:56;0.10;;;0.10;;
9643;SDS011;4860;50.900;4.720;2023-05-16T11:39:22;0.10;;;0.10;;
9643;SDS011;4860;50.900;4.720;2023-05-16T11:41:52;0.10;;;0.10;;
9643;SDS011;4860;50.900;4.720;2023-05-16T11:44:18;0.10;;;0.10;;
9643;SDS011;4860;50.900;4.720;2023-05-16T11:46:45;0.10;;;0.10;;
9643;SDS011;4860;50.900;4.720;2023-05-16T11:49:13;0.10;;;0.10;;
9643;SDS011;4860;50.900;4.720;2023-05-16T11:51:41;0.00;;;0.00;;
9643;SDS011;4860;50.900;4.720;2023-05-16T11:54:09;0.10;;;0.10;;
9643;SDS011;4860;50.900;4.720;2023-05-16T11:56:39;0.10;;;0.10;;
9643;SDS011;4860;50.900;4.720;2023-05-16T11:59:05;0.03;;;0.03;;
9643;SDS011;4860;50.900;4.720;2023-05-16T12:01:35;0.10;;;0.10;;
9643;SDS011;4860;50.900;4.720;2023-05-16T12:04:08;0.10;;;0.10;;
9643;SDS011;4860;50.900;4.720;2023-05-16T12:06:37;0.10;;;0.10;;
9643;SDS011;4860;50.900;4.720;2023-05-16T12:09:12;0.10;;;0.10;;
9643;SDS011;4860;50.900;4.720;2023-05-16T12:11:41;0.10;;;0.10;;
9643;SDS011;4860;50.900;4.720;2023-05-16T12:14:11;0.05;;;0.05;;
9643;SDS011;4860;50.900;4.720;2023-05-16T12:16:41;0.10;;;0.10;;
9643;SDS011;4860;50.900;4.720;2023-05-16T12:19:11;0.10;;;0.10;;
9643;SDS011;4860;50.900;4.720;2023-05-16T12:21:42;0.10;;;0.10;;
9643;SDS011;4860;50.900;4.720;2023-05-16T12:24:11;0.10;;;0.10;;
9643;SDS011;4860;50.900;4.720;2023-05-16T12:26:40;0.10;;;0.10;;
9643;SDS011;4860;50.900;4.720;2023-05-16T12:29:10;0.10;;;0.10;;
9643;SDS011;4860;50.900;4.720;2023-05-16T12:31:39;0.05;;;0.05;;
9643;SDS011;4860;50.900;4.720;2023-05-16T12:34:16;0.10;;;0.10;;
9643;SDS011;4860;50.900;4.720;2023-05-16T12:36:50;0.10;;;0.10;;
9643;SDS011;4860;50.900;4.720;2023-05-16T12:39:17;0.10;;;0.10;;
9643;SDS011;4860;50.900;4.720;2023-05-16T12:41:44;0.00;;;0.00;;
9643;SDS011;4860;50.900;4.720;2023-05-16T12:44:11;0.10;;;0.10;;
9643;SDS011;4860;50.900;4.720;2023-05-16T12:46:45;0.10;;;0.10;;
9643;SDS011;4860;50.900;4.720;2023-05-16T12:49:12;0.10;;;0.10;;
9643;SDS011;4860;50.900;4.720;2023-05-16T12:51:39;0.10;;;0.10;;
9643;SDS011;4860;50.900;4.720;2023-05-16T12:54:09;0.10;;;0.10;;
9643;SDS011;4860;50.900;4.720;2023-05-16T12:56:39;0.10;;;0.10;;
9643;SDS011;4860;50.900;4.720;2023-05-16T12:59:05;0.10;;;0.10;;
9643;SDS011;4860;50.900;4.720;2023-05-16T13:01:32;0.10;;;0.10;;
9643;SDS011;4860;50.900;4.720;2023-05-16T13:03:59;0.05;;;0.05;;
9643;SDS011;4860;50.900;4.720;2023-05-16T13:06:25;0.00;;;0.00;;
9643;SDS011;4860;50.900;4.720;2023-05-16T13:08:52;0.00;;;0.00;;
9643;SDS011;4860;50.900;4.720;2023-05-16T13:11:18;0.13;;;0.13;;
9643;SDS011;4860;50.900;4.720;2023-05-16T13:13:44;0.10;;;0.10;;
9643;SDS011;4860;50.900;4.720;2023-05-16T13:16:11;0.10;;;0.10;;
9643;SDS011;4860;50.900;4.720;2023-05-16T13:18:37;0.10;;;0.10;;
9643;SDS011;4860;50.900;4.720;2023-05-16T13:21:03;0.10;;;0.10;;
9643;SDS011;4860;50.900;4.720;2023-05-16T13:23:29;0.00;;;0.00;;
9643;SDS011;4860;50.900;4.720;2023-05-16T13:25:57;0.10;;;0.10;;
9643;SDS011;4860;50.900;4.720;2023-05-16T13:28:26;0.10;;;0.10;;
9643;SDS011;4860;50.900;4.720;2023-05-16T13:30:52;0.00;;;0.00;;
9643;SDS011;4860;50.900;4.720;2023-05-16T13:33:18;0.10;;;0.10;;
9643;SDS011;4860;50.900;4.720;2023-05-16T13:35:44;0.10;;;0.10;;
9643;SDS011;4860;50.900;4.720;2023-05-16T13:38:11;0.00;;;0.00;;
9643;SDS011;4860;50.900;4.720;2023-05-16T13:40:37;0.10;;;0.10;;
9643;SDS011;4860;50.900;4.720;2023-05-16T13:43:03;0.10;;;0.10;;
9643;SDS011;4860;50.900;4.720;2023-05-16T13:45:30;0.10;;;0.10;;
9643;SDS011;4860;50.900;4.720;2023-05-16T13:47:57;0.10;;;0.10;;
9643;SDS011;4860;50.900;4.720;2023-05-16T13:50:23;0.10;;;0.10;;
9643;SDS011;4860;50.900;4.720;2023-05-16T13:52:50;0.10;;;0.10;;
9643;SDS011;4860;50.900;4.720;2023-05-16T13:55:16;0.10;;;0.10;;
9643;SDS011;4860;50.900;4.720;2023-05-16T13:57:42;0.10;;;0.10;;
9643;SDS011;4860;50.900;4.720;2023-05-16T14:00:08;0.10;;;0.10;;
9643;SDS011;4860;50.900;4.720;2023-05-16T14:02:38;0.10;;;0.10;;
9643;SDS011;4860;50.900;4.720;2023-05-16T14:05:05;0.10;;;0.10;;
9643;SDS011;4860;50.900;4.720;2023-05-16T14:07:31;0.10;;;0.10;;
9643;SDS011;4860;50.900;4.720;2023-05-16T14:09:58;0.10;;;0.10;;
9643;SDS011;4860;50.900;4.720;2023-05-16T14:12:24;0.10;;;0.10;;
9643;SDS011;4860;50.900;4.720;2023-05-16T14:14:50;0.10;;;0.10;;
9643;SDS011;4860;50.900;4.720;2023-05-16T14:17:18;0.10;;;0.10;;
9643;SDS011;4860;50.900;4.720;2023-05-16T14:19:45;0.10;;;0.10;;
9643;SDS011;4860;50.900;4.720;2023-05-16T14:22:11;0.00;;;0.00;;
9643;SDS011;4860;50.900;4.720;2023-05-16T14:24:37;0.10;;;0.10;;
9643;SDS011;4860;50.900;4.720;2023-05-16T14:27:03;0.00;;;0.00;;
9643;SDS011;4860;50.900;4.720;2023-05-16T14:29:29;0.10;;;0.10;;
9643;SDS011;4860;50.900;4.720;2023-05-16T14:31:56;0.10;;;0.10;;
9643;SDS011;4860;50.900;4.720;2023-05-16T14:34:22;0.10;;;0.10;;
9643;SDS011;4860;50.900;4.720;2023-05-16T14:36:48;0.10;;;0.10;;
9643;SDS011;4860;50.900;4.720;2023-05-16T14:39:15;0.10;;;0.10;;
9643;SDS011;4860;50.900;4.720;2023-05-16T14:41:41;0.00;;;0.00;;
9643;SDS011;4860;50.900;4.720;2023-05-16T14:44:07;0.00;;;0.00;;
9643;SDS011;4860;50.900;4.720;2023-05-16T14:46:34;0.10;;;0.10;;
9643;SDS011;4860;50.900;4.720;2023-05-16T14:49:00;0.10;;;0.10;;
9643;SDS011;4860;50.900;4.720;2023-05-16T14:51:26;0.08;;;0.08;;
9643;SDS011;4860;50.900;4.720;2023-05-16T14:53:52;0.10;;;0.10;;
9643;SDS011;4860;50.900;4.720;2023-05-16T14:56:18;0.10;;;0.10;;
9643;SDS011;4860;50.900;4.720;2023-05-16T14:58:45;0.10;;;0.10;;
9643;SDS011;4860;50.900;4.720;2023-05-16T15:01:12;0.05;;;0.05;;
9643;SDS011;4860;50.900;4.720;2023-05-16T15:03:39;0.10;;;0.10;;
9643;SDS011;4860;50.900;4.720;2023-05-16T15:06:05;0.10;;;0.10;;
9643;SDS011;4860;50.900;4.720;2023-05-16T15:08:32;0.03;;;0.03;;
9643;SDS011;4860;50.900;4.720;2023-05-16T15:10:59;0.00;;;0.00;;
9643;SDS011;4860;50.900;4.720;2023-05-16T15:13:25;0.10;;;0.10;;
9643;SDS011;4860;50.900;4.720;2023-05-16T15:15:52;0.10;;;0.10;;
9643;SDS011;4860;50.900;4.720;2023-05-16T15:18:18;0.10;;;0.10;;
9643;SDS011;4860;50.900;4.720;2023-05-16T15:20:44;0.00;;;0.00;;
9643;SDS011;4860;50.900;4.720;2023-05-16T15:23:10;0.00;;;0.00;;
9643;SDS011;4860;50.900;4.720;2023-05-16T15:25:36;0.00;;;0.00;;
9643;SDS011;4860;50.900;4.720;2023-05-16T15:28:03;0.00;;;0.00;;
9643;SDS011;4860;50.900;4.720;2023-05-16T15:30:29;0.00;;;0.00;;
9643;SDS011;4860;50.900;4.720;2023-05-16T15:32:55;0.00;;;0.00;;
9643;SDS011;4860;50.900;4.720;2023-05-16T15:35:21;0.00;;;0.00;;
9643;SDS011;4860;50.900;4.720;2023-05-16T15:37:47;0.00;;;0.00;;
9643;SDS011;4860;50.900;4.720;2023-05-16T15:40:14;0.00;;;0.00;;
9643;SDS011;4860;50.900;4.720;2023-05-16T15:42:41;0.00;;;0.00;;